Time;durP1;ratioP1;P1;durP2;ratioP2;P2;SDS_P1;SDS_P2;PMS_P1;PMS_P2;Temp;Humidity;BMP_temperature;BMP_pressure;BME280_temperature;BME280_humidity;BME280_pressure;Samples;Min_cycle;Max_cycle;Signal;HPM_P1;HPM_P2
2023/07/22 00:00:17;;;;;;;7.28;3.45;;;;;;;12.32;91.93;96096.91;2090975;28;20053;-60
2023/07/22 00:01:21;;;;;;;12.63;3.60;;;;;;;12.33;91.59;96092.53;2090010;28;20053;-58
2023/07/22 00:02:22;;;;;;;5.05;3.17;;;;;;;12.24;91.91;96073.03;2090277;28;20405;-59
2023/07/22 00:03:23;;;;;;;7.28;3.22;;;;;;;12.32;91.60;96090.84;2091087;28;20052;-58
2023/07/22 00:04:25;;;;;;;5.05;3.22;;;;;;;12.31;92.05;96091.78;2090938;28;20053;-58
2023/07/22 00:05:26;;;;;;;8.10;2.97;;;;;;;12.26;91.91;96099.81;2090587;28;20053;-58
2023/07/22 00:06:27;;;;;;;4.32;2.95;;;;;;;12.25;91.77;96089.50;2091324;28;20053;-58
2023/07/22 00:07:28;;;;;;;6.03;3.15;;;;;;;12.25;92.19;96099.91;2091056;28;20053;-58
2023/07/22 00:08:30;;;;;;;7.20;3.25;;;;;;;12.19;92.25;96097.63;2091025;28;20491;-59
2023/07/22 00:09:34;;;;;;;4.60;2.95;;;;;;;12.16;92.07;96093.41;2090485;28;20060;-58
2023/07/22 00:10:41;;;;;;;4.45;2.95;;;;;;;12.05;91.93;96075.75;2091242;28;20049;-59
2023/07/22 00:11:42;;;;;;;6.80;2.95;;;;;;;12.06;91.85;96074.84;2090804;28;20048;-58
2023/07/22 00:12:43;;;;;;;10.35;3.30;;;;;;;12.14;92.82;96090.06;2090592;28;20124;-58
2023/07/22 00:13:44;;;;;;;4.82;3.17;;;;;;;12.16;92.88;96092.56;2090537;28;20067;-58
2023/07/22 00:14:45;;;;;;;6.13;3.25;;;;;;;12.14;92.72;96087.47;2091523;28;20076;-58
2023/07/22 00:15:46;;;;;;;5.30;3.38;;;;;;;12.14;92.85;96088.28;2090942;28;20060;-58
2023/07/22 00:16:47;;;;;;;6.68;3.65;;;;;;;12.10;92.75;96081.56;2090705;28;20064;-58
2023/07/22 00:17:48;;;;;;;7.93;3.60;;;;;;;12.09;93.01;96082.47;2091150;28;20499;-58
2023/07/22 00:18:50;;;;;;;7.22;3.33;;;;;;;12.08;92.99;96079.94;2091157;28;20056;-58
2023/07/22 00:19:51;;;;;;;6.25;3.47;;;;;;;12.05;92.51;96085.31;2090962;28;20057;-59
2023/07/22 00:20:52;;;;;;;5.90;3.47;;;;;;;12.04;92.65;96083.66;2090441;28;20052;-58
2023/07/22 00:21:53;;;;;;;6.45;3.83;;;;;;;11.99;92.66;96086.47;2091248;28;20056;-58
2023/07/22 00:22:54;;;;;;;6.07;3.80;;;;;;;11.96;92.83;96091.84;2090977;28;20059;-58
2023/07/22 00:23:55;;;;;;;6.00;3.20;;;;;;;11.95;93.22;96091.91;2090406;28;20477;-58
2023/07/22 00:24:59;;;;;;;8.63;3.85;;;;;;;11.95;93.57;96094.50;2090492;28;20055;-58
2023/07/22 00:26:00;;;;;;;8.23;4.28;;;;;;;11.95;93.82;96091.91;2090705;28;20485;-58
2023/07/22 00:27:02;;;;;;;9.40;4.43;;;;;;;11.94;93.80;96088.47;2090498;28;20056;-59
2023/07/22 00:28:06;;;;;;;7.95;4.00;;;;;;;11.94;94.09;96096.28;2090112;28;20500;-58
2023/07/22 00:29:07;;;;;;;6.32;4.13;;;;;;;11.87;94.30;96085.34;2090188;28;20053;-59
2023/07/22 00:30:09;;;;;;;7.45;4.70;;;;;;;11.82;94.79;96076.06;2089772;28;20057;-58
2023/07/22 00:31:10;;;;;;;7.50;4.38;;;;;;;11.97;94.78;96095.28;2090682;28;20500;-59
2023/07/22 00:32:11;;;;;;;11.18;4.78;;;;;;;11.99;95.14;96093.44;2089738;28;20059;-58
2023/07/22 00:33:13;;;;;;;5.85;4.15;;;;;;;11.84;94.75;96066.41;2090014;28;20044;-59
2023/07/22 00:34:14;;;;;;;5.93;3.92;;;;;;;11.95;94.38;96086.69;2089940;28;20057;-58
2023/07/22 00:35:16;;;;;;;7.18;4.38;;;;;;;11.95;95.27;96092.78;2090724;28;20037;-58
2023/07/22 00:36:17;;;;;;;7.22;4.70;;;;;;;11.93;94.37;96080.75;2090227;28;20053;-58
2023/07/22 00:37:18;;;;;;;7.38;4.50;;;;;;;11.91;94.66;96091.22;2089166;28;20061;-59
2023/07/22 00:38:19;;;;;;;9.02;5.10;;;;;;;11.90;95.08;96086.97;2081874;28;20053;-58
2023/07/22 00:39:20;;;;;;;8.15;4.60;;;;;;;11.88;94.59;96088.78;2090371;28;20057;-58
2023/07/22 00:40:22;;;;;;;9.73;5.20;;;;;;;11.85;94.88;96091.53;2090826;28;20064;-59
2023/07/22 00:41:23;;;;;;;6.20;4.57;;;;;;;11.83;95.25;96085.53;2090945;28;20056;-58
2023/07/22 00:42:25;;;;;;;11.60;4.88;;;;;;;11.80;94.92;96083.09;2088695;28;20053;-58
2023/07/22 00:43:26;;;;;;;10.57;5.75;;;;;;;11.77;94.79;96075.47;2089647;28;20060;-58
2023/07/22 00:44:27;;;;;;;8.75;5.00;;;;;;;11.74;94.59;96078.22;2091171;28;20158;-58
2023/07/22 00:45:28;;;;;;;9.40;5.53;;;;;;;11.70;95.00;96078.34;2089865;28;20045;-58
2023/07/22 00:46:29;;;;;;;9.30;5.13;;;;;;;11.68;95.27;96077.59;2089707;28;20056;-59
2023/07/22 00:47:32;;;;;;;8.13;4.95;;;;;;;11.61;95.39;96071.03;2090591;28;20045;-59
2023/07/22 00:48:33;;;;;;;7.60;5.20;;;;;;;11.67;95.46;96077.66;2089959;28;20044;-58
2023/07/22 00:49:34;;;;;;;13.65;6.53;;;;;;;11.75;95.88;96079.88;2090363;28;20400;-58
2023/07/22 00:50:35;;;;;;;9.13;6.20;;;;;;;11.76;96.45;96081.56;2089697;28;20053;-58
2023/07/22 00:51:36;;;;;;;12.73;5.68;;;;;;;11.75;96.43;96075.53;2089751;28;20056;-58
2023/07/22 00:52:38;;;;;;;12.02;6.35;;;;;;;11.72;96.56;96065.28;2090046;28;20539;-58
2023/07/22 00:53:39;;;;;;;7.18;5.53;;;;;;;11.72;96.51;96080.06;2081610;28;20052;-58
2023/07/22 00:54:40;;;;;;;12.15;6.00;;;;;;;11.69;96.53;96073.25;2082326;28;20056;-58
2023/07/22 00:55:41;;;;;;;8.85;5.50;;;;;;;11.70;96.71;96073.16;2081075;28;20053;-58
2023/07/22 00:56:42;;;;;;;9.18;6.28;;;;;;;11.67;96.44;96075.06;2081787;28;20556;-58
2023/07/22 00:57:43;;;;;;;13.07;6.57;;;;;;;11.54;96.19;96048.81;2081234;28;20053;-58
2023/07/22 00:58:44;;;;;;;12.65;6.85;;;;;;;11.59;97.15;96062.44;2081358;28;20050;-58
2023/07/22 00:59:46;;;;;;;8.70;5.93;;;;;;;11.63;96.23;96073.56;2082039;28;20045;-59
2023/07/22 01:00:48;;;;;;;11.05;5.93;;;;;;;11.43;96.62;96032.94;2089975;28;20044;-59
2023/07/22 01:01:49;;;;;;;13.48;6.60;;;;;;;11.63;97.41;96069.19;2090443;28;20045;-58
2023/07/22 01:02:50;;;;;;;12.73;6.70;;;;;;;11.62;97.25;96066.66;2091085;28;20044;-59
2023/07/22 01:03:51;;;;;;;11.85;6.43;;;;;;;11.60;97.08;96065.88;2081952;28;20497;-58
2023/07/22 01:04:52;;;;;;;10.48;6.07;;;;;;;11.58;96.67;96060.78;2073412;28;20053;-58
2023/07/22 01:05:54;;;;;;;12.73;7.90;;;;;;;11.56;96.68;96060.00;2089464;28;20056;-58
2023/07/22 01:06:56;;;;;;;12.25;7.78;;;;;;;11.59;97.16;96061.59;2080647;28;20113;-58
2023/07/22 01:07:57;;;;;;;9.50;6.63;;;;;;;11.57;97.15;96061.66;2073859;28;20549;-58
2023/07/22 01:08:58;;;;;;;12.23;7.07;;;;;;;11.62;97.85;96064.06;2081786;28;20107;-58
2023/07/22 01:10:01;;;;;;;15.90;8.25;;;;;;;11.60;98.39;96064.16;2081917;28;20053;-58
2023/07/22 01:11:03;;;;;;;18.80;8.00;;;;;;;11.66;99.41;96071.63;2089892;28;20049;-58
2023/07/22 01:12:08;;;;;;;12.00;8.20;;;;;;;11.64;99.02;96063.06;2090079;28;20052;-58
2023/07/22 01:13:09;;;;;;;15.93;8.70;;;;;;;11.66;99.71;96061.22;2089501;28;20432;-58
2023/07/22 01:14:10;;;;;;;14.88;9.57;;;;;;;11.62;99.66;96064.06;2089791;28;20040;-58
2023/07/22 01:15:12;;;;;;;14.05;8.30;;;;;;;11.51;99.58;96046.38;2089683;28;20516;-58
2023/07/22 01:16:13;;;;;;;16.35;9.32;;;;;;;11.70;99.46;96065.34;2089526;28;20456;-58
2023/07/22 01:17:14;;;;;;;16.55;9.10;;;;;;;11.67;99.59;96064.66;2081519;28;20049;-59
2023/07/22 01:18:15;;;;;;;14.10;9.50;;;;;;;11.60;99.63;96050.28;2073550;28;20418;-58
2023/07/22 01:19:16;;;;;;;17.67;9.43;;;;;;;11.64;99.25;96067.44;2081197;28;20478;-58
2023/07/22 01:20:18;;;;;;;14.68;9.30;;;;;;;11.60;98.76;96060.69;2081777;28;20057;-58
2023/07/22 01:21:20;;;;;;;16.42;9.90;;;;;;;11.58;98.54;96058.16;2089323;28;20140;-58
2023/07/22 01:22:21;;;;;;;17.33;10.00;;;;;;;11.64;99.71;96063.06;2073397;28;20049;-58
2023/07/22 01:23:22;;;;;;;16.48;9.98;;;;;;;11.58;99.37;96057.34;2057106;28;20059;-58
2023/07/22 01:24:23;;;;;;;14.10;9.27;;;;;;;11.56;99.96;96054.81;2073623;28;20049;-58
2023/07/22 01:25:24;;;;;;;13.52;9.73;;;;;;;11.56;99.15;96057.41;2089150;28;20057;-58
2023/07/22 01:26:26;;;;;;;13.77;10.07;;;;;;;11.55;99.45;96058.34;2089726;28;20056;-58
2023/07/22 01:27:28;;;;;;;18.20;10.25;;;;;;;11.53;99.10;96049.75;2089308;28;20061;-58
2023/07/22 01:28:29;;;;;;;14.45;10.23;;;;;;;11.54;99.83;96053.19;2081808;28;20057;-58
2023/07/22 01:29:30;;;;;;;14.20;9.82;;;;;;;11.52;99.15;96055.88;2081760;28;20057;-58
2023/07/22 01:30:31;;;;;;;14.10;10.35;;;;;;;11.50;99.40;96052.50;2089745;28;20052;-58
2023/07/22 01:31:36;;;;;;;13.60;10.02;;;;;;;11.47;99.30;96053.50;2090254;28;20048;-58
2023/07/22 01:32:37;;;;;;;16.50;10.73;;;;;;;11.45;99.05;96057.94;2090192;28;20052;-58
2023/07/22 01:33:38;;;;;;;14.50;9.93;;;;;;;11.36;98.18;96039.34;2090364;28;20068;-58
2023/07/22 01:34:39;;;;;;;13.80;10.30;;;;;;;11.43;98.66;96056.31;2089950;28;20056;-58
2023/07/22 01:35:41;;;;;;;19.80;10.57;;;;;;;11.45;98.54;96054.50;2090263;28;20045;-58
2023/07/22 01:36:42;;;;;;;18.95;11.00;;;;;;;11.44;98.97;96058.00;2089734;28;20068;-58
2023/07/22 01:37:44;;;;;;;16.42;10.65;;;;;;;11.41;99.52;96046.03;2090317;28;20079;-59
2023/07/22 01:38:45;;;;;;;13.55;10.20;;;;;;;11.39;99.16;96050.44;2090413;28;20049;-58
2023/07/22 01:39:46;;;;;;;12.73;9.10;;;;;;;11.38;98.70;96056.53;2090456;28;20045;-60
2023/07/22 01:40:47;;;;;;;17.90;11.00;;;;;;;11.37;98.91;96052.28;2089872;28;20056;-58
2023/07/22 01:41:48;;;;;;;16.10;10.63;;;;;;;11.38;99.16;96051.34;2090364;28;20047;-59
2023/07/22 01:42:50;;;;;;;18.13;11.13;;;;;;;11.36;99.46;96050.59;2090163;28;20108;-58
2023/07/22 01:43:51;;;;;;;15.20;9.50;;;;;;;11.38;98.86;96061.75;2090154;28;20040;-58
2023/07/22 01:44:52;;;;;;;17.08;10.57;;;;;;;11.25;99.46;96034.66;2089652;28;20048;-58
2023/07/22 01:45:54;;;;;;;22.90;11.18;;;;;;;11.33;98.77;96055.09;2089411;28;20053;-58
2023/07/22 01:46:55;;;;;;;14.20;10.57;;;;;;;11.34;98.87;96062.00;2088816;28;20060;-58
2023/07/22 01:47:56;;;;;;;18.50;10.55;;;;;;;11.36;99.14;96061.00;2089535;28;20040;-58
2023/07/22 01:48:57;;;;;;;16.33;10.30;;;;;;;11.37;99.79;96061.84;2090331;28;20057;-58
2023/07/22 01:49:58;;;;;;;15.30;9.32;;;;;;;11.32;99.23;96056.03;2089797;28;20045;-58
2023/07/22 01:50:59;;;;;;;16.38;10.77;;;;;;;11.34;99.85;96062.84;2081513;28;20064;-58
2023/07/22 01:52:00;;;;;;;15.93;10.35;;;;;;;11.31;99.59;96062.97;2089521;28;20072;-58
2023/07/22 01:53:01;;;;;;;19.83;9.82;;;;;;;11.31;99.36;96065.59;2090170;28;20048;-58
2023/07/22 01:54:03;;;;;;;18.33;10.70;;;;;;;11.29;99.54;96062.22;2089622;28;20064;-58
2023/07/22 01:55:05;;;;;;;19.52;10.10;;;;;;;11.22;99.79;96059.06;2090381;28;20044;-58
2023/07/22 01:56:07;;;;;;;15.90;10.20;;;;;;;11.29;99.79;96061.38;2089463;28;20060;-58
2023/07/22 01:57:08;;;;;;;16.85;10.63;;;;;;;11.29;99.15;96071.78;2081317;28;20053;-57
2023/07/22 01:58:09;;;;;;;16.15;9.85;;;;;;;11.32;99.83;96064.66;2081337;28;20402;-59
2023/07/22 01:59:10;;;;;;;13.52;9.32;;;;;;;11.35;100.00;96067.09;2081530;28;20063;-58
2023/07/22 02:00:11;;;;;;;17.00;10.75;;;;;;;11.41;100.00;96071.16;2089436;28;20172;-58
2023/07/22 02:01:16;;;;;;;17.77;10.98;;;;;;;11.37;100.00;96059.25;2096632;28;20045;-58
2023/07/22 02:02:17;;;;;;;19.08;10.50;;;;;;;11.34;100.00;96068.03;2089203;28;20052;-58
2023/07/22 02:03:18;;;;;;;18.98;10.80;;;;;;;11.31;100.00;96059.56;2081543;28;20045;-58
2023/07/22 02:04:19;;;;;;;16.38;10.48;;;;;;;11.30;100.00;96063.88;2088876;28;20151;-58
2023/07/22 02:05:20;;;;;;;16.52;11.20;;;;;;;11.33;100.00;96057.69;2089395;28;20420;-58
2023/07/22 02:06:22;;;;;;;16.58;10.07;;;;;;;11.31;100.00;96064.75;2089368;28;20098;-58
2023/07/22 02:07:26;;;;;;;17.55;12.02;;;;;;;11.30;100.00;96063.88;2088819;28;20060;-58
2023/07/22 02:08:27;;;;;;;17.10;11.88;;;;;;;11.27;100.00;96067.47;2089145;28;20408;-58
2023/07/22 02:09:28;;;;;;;16.50;12.60;;;;;;;11.22;100.00;96056.44;2089525;28;20052;-58
2023/07/22 02:10:30;;;;;;;17.77;11.98;;;;;;;11.41;100.00;96066.81;2089182;28;20436;-58
2023/07/22 02:11:32;;;;;;;18.52;13.18;;;;;;;11.42;100.00;96065.91;2088857;28;20045;-58
2023/07/22 02:12:33;;;;;;;25.05;13.18;;;;;;;11.35;100.00;96063.66;2080353;28;20060;-58
2023/07/22 02:13:34;;;;;;;19.08;13.10;;;;;;;11.23;100.00;96050.34;2089383;28;20072;-58
2023/07/22 02:14:36;;;;;;;20.52;12.15;;;;;;;11.32;100.00;96064.66;2090052;28;20140;-59
2023/07/22 02:15:37;;;;;;;18.92;13.25;;;;;;;11.33;100.00;96073.28;2089095;28;20051;-59
2023/07/22 02:16:39;;;;;;;17.55;12.80;;;;;;;11.36;100.00;96067.94;2089114;28;20048;-58
2023/07/22 02:17:40;;;;;;;19.17;13.20;;;;;;;11.36;100.00;96067.94;2081248;28;20057;-58
2023/07/22 02:18:41;;;;;;;20.45;12.95;;;;;;;11.31;100.00;96067.34;2089440;28;20045;-59
2023/07/22 02:19:43;;;;;;;20.10;13.15;;;;;;;11.27;100.00;96074.44;2089016;28;20053;-58
2023/07/22 02:20:44;;;;;;;16.55;13.23;;;;;;;11.25;100.00;96074.53;2080668;28;20053;-59
2023/07/22 02:21:45;;;;;;;19.77;13.35;;;;;;;11.28;100.00;96070.94;2088947;28;20509;-58
2023/07/22 02:22:47;;;;;;;21.88;14.05;;;;;;;11.40;100.00;96072.91;2090375;28;20056;-58
2023/07/22 02:23:49;;;;;;;16.45;12.50;;;;;;;11.34;100.00;96072.41;2089943;28;20068;-58
2023/07/22 02:24:50;;;;;;;21.52;14.10;;;;;;;11.33;100.00;96076.72;2090007;28;20057;-58
2023/07/22 02:25:51;;;;;;;16.83;12.70;;;;;;;11.24;100.00;96054.63;2089952;28;20365;-58
2023/07/22 02:26:52;;;;;;;23.88;14.27;;;;;;;11.36;100.00;96078.34;2089555;28;20051;-58
2023/07/22 02:27:53;;;;;;;19.55;14.93;;;;;;;11.32;100.00;96077.66;2089489;28;20060;-59
2023/07/22 02:28:55;;;;;;;20.15;13.10;;;;;;;11.31;100.00;96078.59;2089643;28;20465;-58
2023/07/22 02:29:56;;;;;;;24.27;14.88;;;;;;;11.30;100.00;96076.88;2090011;28;20049;-58
2023/07/22 02:31:00;;;;;;;22.45;13.48;;;;;;;11.22;100.00;96068.63;2089389;28;20063;-58
2023/07/22 02:32:01;;;;;;;19.65;14.15;;;;;;;11.34;100.00;96080.19;2072762;28;20054;-58
2023/07/22 02:33:02;;;;;;;20.45;12.57;;;;;;;11.09;100.00;96050.16;2081586;28;20050;-59
2023/07/22 02:34:03;;;;;;;19.65;14.20;;;;;;;11.25;100.00;96079.72;2080466;28;20052;-58
2023/07/22 02:35:06;;;;;;;18.25;12.68;;;;;;;11.24;100.00;96085.81;2081233;28;20527;-58
2023/07/22 02:36:08;;;;;;;20.20;14.23;;;;;;;11.20;100.00;96063.50;2089487;28;20056;-58
2023/07/22 02:37:09;;;;;;;21.38;14.02;;;;;;;11.31;100.00;96081.19;2089482;28;20508;-58
2023/07/22 02:38:10;;;;;;;18.60;13.93;;;;;;;11.36;100.00;96074.00;2089209;28;20049;-58
2023/07/22 02:39:11;;;;;;;20.27;14.80;;;;;;;11.37;100.00;96082.63;2089969;28;20049;-58
2023/07/22 02:40:12;;;;;;;23.65;14.93;;;;;;;11.44;100.00;96078.81;2089985;28;20052;-58
2023/07/22 02:41:13;;;;;;;18.70;14.65;;;;;;;11.40;100.00;96078.13;2089488;28;20053;-58
2023/07/22 02:42:15;;;;;;;29.02;17.05;;;;;;;11.36;100.00;96066.22;2088976;28;20056;-58
2023/07/22 02:43:16;;;;;;;24.80;15.93;;;;;;;11.36;100.00;96076.59;2089730;28;20052;-58
2023/07/22 02:44:17;;;;;;;22.98;17.63;;;;;;;11.37;100.00;96078.28;2089083;28;20053;-58
2023/07/22 02:45:18;;;;;;;25.55;15.60;;;;;;;11.27;100.00;96077.88;2090126;28;20057;-58
2023/07/22 02:46:19;;;;;;;23.20;17.08;;;;;;;11.32;100.00;96077.66;2089813;28;20057;-58
2023/07/22 02:47:20;;;;;;;23.52;16.38;;;;;;;11.27;100.00;96084.84;2089591;28;20053;-58
2023/07/22 02:48:21;;;;;;;26.83;16.83;;;;;;;11.21;100.00;96078.19;2089395;28;20053;-58
2023/07/22 02:49:22;;;;;;;24.90;17.17;;;;;;;11.29;100.00;96077.81;2089719;28;20496;-58
2023/07/22 02:50:23;;;;;;;26.67;16.13;;;;;;;11.26;100.00;96081.41;2088911;28;20048;-58
2023/07/22 02:51:25;;;;;;;24.75;17.35;;;;;;;11.29;100.00;96084.78;2089225;28;20041;-58
2023/07/22 02:52:26;;;;;;;22.15;17.02;;;;;;;11.26;100.00;96083.16;2090147;28;20049;-58
2023/07/22 02:53:27;;;;;;;24.02;17.65;;;;;;;11.22;100.00;96082.44;2088992;28;20432;-58
2023/07/22 02:54:28;;;;;;;24.20;15.32;;;;;;;11.22;100.00;96082.44;2089137;28;20053;-59
2023/07/22 02:55:29;;;;;;;25.48;17.27;;;;;;;11.24;100.00;96085.81;2089530;28;20147;-58
2023/07/22 02:56:30;;;;;;;23.40;16.25;;;;;;;11.22;100.00;96087.66;2088978;28;20045;-58
2023/07/22 02:57:31;;;;;;;22.75;16.88;;;;;;;11.20;100.00;96083.44;2080960;28;20504;-58
2023/07/22 02:58:33;;;;;;;22.25;15.73;;;;;;;11.10;100.00;96070.06;2089186;28;20049;-58
2023/07/22 02:59:34;;;;;;;24.20;16.50;;;;;;;11.20;100.00;96088.63;2089552;28;20056;-58
2023/07/22 03:00:35;;;;;;;24.20;17.05;;;;;;;11.19;100.00;96084.38;2089847;28;20052;-58
2023/07/22 03:01:36;;;;;;;23.23;16.40;;;;;;;11.23;100.00;96088.50;2089997;28;20037;-58
2023/07/22 03:02:38;;;;;;;22.73;16.63;;;;;;;11.23;100.00;96080.72;2089360;28;20045;-58
2023/07/22 03:03:40;;;;;;;25.92;17.45;;;;;;;11.21;100.00;96083.38;2088702;28;20067;-58
2023/07/22 03:04:41;;;;;;;27.88;17.63;;;;;;;11.20;100.00;96088.63;2088608;28;20059;-58
2023/07/22 03:05:42;;;;;;;23.75;17.98;;;;;;;11.18;100.00;96087.91;2089159;28;20045;-58
2023/07/22 03:06:44;;;;;;;23.02;17.13;;;;;;;11.10;100.00;96070.06;2089799;28;20044;-58
2023/07/22 03:07:45;;;;;;;19.17;14.13;;;;;;;11.17;100.00;96089.66;2090825;28;20060;-58
2023/07/22 03:08:48;;;;;;;26.35;17.95;;;;;;;11.20;100.00;96080.84;2091417;28;20477;-58
2023/07/22 03:09:50;;;;;;;26.08;17.70;;;;;;;11.20;100.00;96081.72;2090844;28;20074;-58
2023/07/22 03:10:52;;;;;;;22.95;17.20;;;;;;;11.18;100.00;96075.72;2091285;28;20057;-59
2023/07/22 03:11:53;;;;;;;24.25;18.23;;;;;;;11.18;100.00;96078.34;2091303;28;20424;-58
2023/07/22 03:12:55;;;;;;;28.48;18.52;;;;;;;11.07;100.00;96067.63;2090399;28;20053;-58
2023/07/22 03:13:57;;;;;;;22.50;16.65;;;;;;;11.16;100.00;96082.75;2090462;28;20049;-58
2023/07/22 03:14:58;;;;;;;22.17;15.73;;;;;;;11.13;100.00;96075.09;2091495;28;20060;-60
2023/07/22 03:16:00;;;;;;;23.48;17.10;;;;;;;11.11;100.00;96078.69;2090629;28;20053;-58
2023/07/22 03:17:01;;;;;;;17.63;14.65;;;;;;;11.11;100.00;96078.69;2090651;28;20045;-58
2023/07/22 03:18:02;;;;;;;24.30;17.35;;;;;;;11.13;100.00;96089.88;2091366;28;20053;-58
2023/07/22 03:19:03;;;;;;;27.13;17.75;;;;;;;11.11;100.00;96082.13;2090767;28;20072;-58
2023/07/22 03:20:08;;;;;;;25.90;17.58;;;;;;;11.04;100.00;96084.19;2090171;28;20053;-59
2023/07/22 03:21:10;;;;;;;26.45;18.30;;;;;;;11.07;100.00;96078.00;2092193;28;20048;-58
2023/07/22 03:22:14;;;;;;;25.45;18.08;;;;;;;10.98;100.00;96074.06;2091649;28;20064;-58
2023/07/22 03:23:15;;;;;;;24.77;17.25;;;;;;;11.04;100.00;96089.41;2090822;28;20056;-58
2023/07/22 03:24:16;;;;;;;26.75;18.17;;;;;;;11.05;100.00;96092.81;2090765;28;20049;-59
2023/07/22 03:25:17;;;;;;;24.55;16.55;;;;;;;10.97;100.00;96077.59;2090339;28;20061;-58
2023/07/22 03:26:18;;;;;;;24.75;18.17;;;;;;;11.05;100.00;96090.22;2090594;28;20052;-58
2023/07/22 03:27:19;;;;;;;24.02;17.70;;;;;;;11.03;100.00;96094.66;2090660;28;20472;-58
2023/07/22 03:28:20;;;;;;;24.05;16.15;;;;;;;11.01;100.00;96089.53;2082129;28;20050;-58
2023/07/22 03:29:24;;;;;;;30.30;17.83;;;;;;;11.03;100.00;96097.25;2090236;28;20061;-58
2023/07/22 03:30:25;;;;;;;26.85;17.05;;;;;;;11.00;100.00;96095.63;2091235;28;20480;-58
2023/07/22 03:31:26;;;;;;;20.80;16.08;;;;;;;10.98;100.00;96102.66;2090055;28;20060;-56
2023/07/22 03:32:27;;;;;;;29.38;18.10;;;;;;;10.96;100.00;96101.03;2090229;28;20059;-56
2023/07/22 03:33:28;;;;;;;23.65;18.13;;;;;;;10.93;100.00;96108.97;2090791;28;20045;-56
2023/07/22 03:34:30;;;;;;;23.73;17.40;;;;;;;10.97;100.00;96105.34;2090237;28;20429;-56
2023/07/22 03:35:33;;;;;;;27.73;16.17;;;;;;;10.94;100.00;96102.91;2090755;28;20492;-56
2023/07/22 03:36:34;;;;;;;22.23;16.63;;;;;;;10.92;100.00;96102.13;2091377;28;20049;-56
2023/07/22 03:37:36;;;;;;;21.08;15.52;;;;;;;10.90;100.00;96104.78;2090586;28;20079;-56
2023/07/22 03:38:37;;;;;;;28.20;17.70;;;;;;;10.90;100.00;96101.34;2090236;28;20053;-56
2023/07/22 03:39:38;;;;;;;23.40;16.38;;;;;;;10.91;100.00;96097.84;2090421;28;20063;-56
2023/07/22 03:40:39;;;;;;;23.40;16.98;;;;;;;10.92;100.00;96095.16;2090295;28;20365;-55
2023/07/22 03:41:40;;;;;;;22.33;16.67;;;;;;;10.91;100.00;96085.69;2091106;28;20044;-56
2023/07/22 03:42:41;;;;;;;27.05;16.52;;;;;;;10.88;100.00;96084.97;2091028;28;20128;-56
2023/07/22 03:43:43;;;;;;;30.30;18.40;;;;;;;10.92;100.00;96091.72;2091057;28;20029;-56
2023/07/22 03:44:44;;;;;;;30.90;17.35;;;;;;;10.91;100.00;96093.47;2090436;28;20085;-56
2023/07/22 03:45:45;;;;;;;21.92;15.30;;;;;;;10.86;100.00;96086.81;2090569;28;20072;-56
2023/07/22 03:46:46;;;;;;;25.50;16.60;;;;;;;10.89;100.00;96094.47;2082557;28;20052;-56
2023/07/22 03:47:50;;;;;;;20.48;15.27;;;;;;;10.79;100.00;96078.47;2082515;28;20049;-55
2023/07/22 03:48:52;;;;;;;18.17;13.65;;;;;;;10.93;100.00;96093.41;2090823;28;20060;-56
2023/07/22 03:49:53;;;;;;;21.52;14.25;;;;;;;10.97;100.00;96098.38;2091184;28;20392;-56
2023/07/22 03:50:54;;;;;;;23.77;15.70;;;;;;;11.01;100.00;96096.47;2091454;28;20049;-56
2023/07/22 03:51:55;;;;;;;22.42;15.35;;;;;;;11.03;100.00;96097.25;2090091;28;20048;-56
2023/07/22 03:52:56;;;;;;;23.38;15.98;;;;;;;11.04;100.00;96097.19;2090057;28;20053;-58
2023/07/22 03:53:57;;;;;;;24.25;15.88;;;;;;;11.02;100.00;96100.78;2090683;28;20065;-55
2023/07/22 03:54:59;;;;;;;21.15;14.40;;;;;;;11.02;100.00;96100.78;2090946;28;20053;-56
2023/07/22 03:56:00;;;;;;;18.73;13.50;;;;;;;11.03;100.00;96105.88;2091002;28;20481;-56
2023/07/22 03:57:01;;;;;;;21.98;15.63;;;;;;;11.02;100.00;96108.56;2090627;28;20060;-56
2023/07/22 03:58:02;;;;;;;22.40;15.90;;;;;;;11.00;100.00;96105.19;2090035;28;20053;-56
2023/07/22 03:59:03;;;;;;;21.98;14.60;;;;;;;11.00;100.00;96107.78;2089926;28;20405;-56
2023/07/22 04:00:09;;;;;;;23.25;15.65;;;;;;;10.94;100.00;96092.50;2090044;28;20059;-56
2023/07/22 04:01:13;;;;;;;21.08;15.07;;;;;;;11.01;100.00;96101.66;2091246;28;20037;-60
2023/07/22 04:02:14;;;;;;;26.30;13.88;;;;;;;11.00;100.00;96103.44;2091150;28;20389;-55
2023/07/22 04:03:15;;;;;;;19.67;14.00;;;;;;;11.01;100.00;96099.94;2090947;28;20063;-56
2023/07/22 04:04:16;;;;;;;18.38;13.88;;;;;;;11.03;100.00;96112.84;2091006;28;20045;-56
2023/07/22 04:05:17;;;;;;;20.98;14.10;;;;;;;11.03;100.00;96107.66;2090939;28;20045;-56
2023/07/22 04:06:19;;;;;;;20.50;14.30;;;;;;;11.04;100.00;96099.78;2090906;28;20061;-56
2023/07/22 04:07:20;;;;;;;18.00;14.02;;;;;;;11.06;100.00;96097.09;2090098;28;20056;-56
2023/07/22 04:08:21;;;;;;;20.45;14.13;;;;;;;11.14;100.00;96097.56;2090259;28;20048;-56
2023/07/22 04:09:22;;;;;;;18.65;14.70;;;;;;;11.05;100.00;96079.84;2089906;28;20060;-55
2023/07/22 04:10:24;;;;;;;19.90;13.73;;;;;;;11.13;100.00;96095.91;2090390;28;20056;-56
2023/07/22 04:11:25;;;;;;;20.42;13.93;;;;;;;11.17;100.00;96101.78;2090046;28;20377;-56
2023/07/22 04:12:26;;;;;;;17.90;13.63;;;;;;;11.16;100.00;96097.50;2090309;28;20059;-56
2023/07/22 04:13:27;;;;;;;18.88;13.48;;;;;;;11.23;100.00;96101.50;2090301;28;20040;-56
2023/07/22 04:14:28;;;;;;;20.60;14.35;;;;;;;11.14;100.00;96086.34;2090311;28;20054;-55
2023/07/22 04:15:30;;;;;;;16.80;13.55;;;;;;;11.26;100.00;96107.41;2090029;28;20424;-56
2023/07/22 04:16:31;;;;;;;17.05;12.98;;;;;;;11.27;100.00;96103.88;2090822;28;20052;-56
2023/07/22 04:17:32;;;;;;;20.33;13.20;;;;;;;11.30;100.00;96099.44;2090811;28;20049;-56
2023/07/22 04:18:34;;;;;;;17.27;12.88;;;;;;;11.32;100.00;96103.66;2089829;28;20058;-56
2023/07/22 04:19:35;;;;;;;17.92;13.00;;;;;;;11.26;100.00;96085.75;2082115;28;20049;-56
2023/07/22 04:20:36;;;;;;;16.30;12.05;;;;;;;11.36;100.00;96102.59;2089926;28;20464;-55
2023/07/22 04:21:37;;;;;;;16.17;12.27;;;;;;;11.40;100.00;96100.69;2090318;28;20053;-56
2023/07/22 04:22:38;;;;;;;17.83;13.10;;;;;;;11.35;100.00;96098.31;2089872;28;20056;-56
2023/07/22 04:23:39;;;;;;;19.80;11.98;;;;;;;11.45;100.00;96102.16;2090800;28;20041;-56
2023/07/22 04:24:41;;;;;;;19.08;12.70;;;;;;;11.50;100.00;96104.53;2090781;28;20041;-56
2023/07/22 04:25:42;;;;;;;20.15;12.85;;;;;;;11.54;100.00;96111.25;2090726;28;20048;-56
2023/07/22 04:26:44;;;;;;;17.80;12.25;;;;;;;11.47;100.00;96084.72;2090732;28;20492;-56
2023/07/22 04:27:45;;;;;;;15.48;11.57;;;;;;;11.58;100.00;96094.59;2090762;28;20048;-56
2023/07/22 04:28:47;;;;;;;19.05;12.60;;;;;;;11.63;100.00;96108.22;2090663;28;20044;-56
2023/07/22 04:29:48;;;;;;;16.98;12.27;;;;;;;11.66;100.00;96108.06;2090756;28;20040;-56
2023/07/22 04:30:56;;;;;;;15.45;11.15;;;;;;;11.72;100.00;96100.88;2090674;28;20048;-56
2023/07/22 04:31:59;;;;;;;19.35;11.88;;;;;;;11.65;100.00;96088.16;2089454;28;20060;-56
2023/07/22 04:33:00;;;;;;;17.65;11.70;;;;;;;11.76;100.00;96099.78;2089838;28;20040;-56
2023/07/22 04:34:01;;;;;;;18.02;10.88;;;;;;;11.77;100.00;96098.88;2090825;28;20151;-56
2023/07/22 04:35:03;;;;;;;18.23;11.18;;;;;;;11.81;100.00;96100.38;2089874;28;20049;-56
2023/07/22 04:36:04;;;;;;;18.40;11.20;;;;;;;11.85;100.00;96104.53;2090075;28;20511;-56
2023/07/22 04:37:06;;;;;;;17.52;10.35;;;;;;;11.87;100.00;96105.34;2089551;28;20056;-55
2023/07/22 04:38:07;;;;;;;18.75;11.13;;;;;;;11.90;100.00;96110.38;2073768;28;20518;-56
2023/07/22 04:39:08;;;;;;;16.02;10.18;;;;;;;11.94;100.00;96103.25;2081476;28;20053;-56
2023/07/22 04:40:14;;;;;;;16.35;10.43;;;;;;;11.99;100.00;96102.09;2090531;28;20060;-56
2023/07/22 04:41:15;;;;;;;16.25;10.02;;;;;;;12.01;100.00;96102.88;2090543;28;20056;-55
2023/07/22 04:42:16;;;;;;;22.77;10.15;;;;;;;12.02;100.00;96099.31;2090783;28;20069;-56